Time;durP1;ratioP1;P1;durP2;ratioP2;P2;SDS_P1;SDS_P2;PMS_P1;PMS_P2;Temp;Humidity;BMP_temperature;BMP_pressure;BME280_temperature;BME280_humidity;BME280_pressure;Samples;Min_cycle;Max_cycle;Signal;HPM_P1;HPM_P2
2023/07/10 00:01:44;;;;;;;12.73;2.67;;;;;;;-146.27;91.92;81470.28;5070569;28;20254;-72
2023/07/10 00:04:20;;;;;;;6.45;2.40;;;;;;;-146.27;91.42;81402.00;5075152;28;20032;-72
2023/07/10 00:06:46;;;;;;;5.97;2.97;;;;;;;-146.27;91.69;81408.03;5079219;28;20093;-71
2023/07/10 00:09:12;;;;;;;7.97;3.28;;;;;;;-146.27;92.60;81397.97;5067500;28;20197;-72
2023/07/10 00:11:39;;;;;;;5.88;2.42;;;;;;;-146.27;94.38;81377.91;5058131;28;20089;-72
2023/07/10 00:14:13;;;;;;;7.75;3.20;;;;;;;-146.27;92.50;81404.00;5071010;28;20480;-72
2023/07/10 00:16:38;;;;;;;7.45;2.47;;;;;;;-146.27;91.53;81379.91;5076373;28;20058;-72
2023/07/10 00:19:10;;;;;;;6.18;3.00;;;;;;;-146.27;90.05;81371.88;5064909;28;20032;-73
2023/07/10 00:21:36;;;;;;;9.80;2.63;;;;;;;-146.27;91.15;81339.75;5054701;28;20551;-73
2023/07/10 00:24:02;;;;;;;7.50;3.13;;;;;;;-146.27;89.78;81408.03;5059974;28;20028;-72
2023/07/10 00:26:27;;;;;;;11.43;3.03;;;;;;;-146.27;91.15;81383.94;5067706;28;20033;-73
2023/07/10 00:28:55;;;;;;;9.70;3.67;;;;;;;-146.27;90.42;81341.75;5067449;28;20021;-73
2023/07/10 00:31:21;;;;;;;9.48;3.55;;;;;;;-146.27;90.67;81385.94;5061576;28;20103;-72
2023/07/10 00:33:47;;;;;;;6.15;3.17;;;;;;;-146.27;89.99;81343.75;5066396;28;20025;-73
2023/07/10 00:36:27;;;;;;;7.28;2.95;;;;;;;-146.27;87.51;81351.78;5073041;28;20047;-73
2023/07/10 00:38:53;;;;;;;6.55;3.17;;;;;;;-146.27;87.90;81363.84;5071414;28;20028;-73
2023/07/10 00:41:21;;;;;;;5.18;2.92;;;;;;;-146.27;87.68;81367.88;5073536;28;20024;-73
2023/07/10 00:43:52;;;;;;;9.25;2.60;;;;;;;-146.27;87.82;81351.78;5061782;28;20028;-71
2023/07/10 00:46:50;;;;;;;4.47;2.80;;;;;;;-146.27;85.65;81353.81;5069433;28;20404;-71
2023/07/10 00:49:24;;;;;;;5.85;2.90;;;;;;;-146.27;86.59;81333.72;5065996;28;20032;-71
2023/07/10 00:52:13;;;;;;;6.63;2.50;;;;;;;-146.27;85.10;81379.91;5059727;28;20166;-72
2023/07/10 00:54:46;;;;;;;8.80;3.35;;;;;;;-146.27;83.96;81351.78;5063634;28;20068;-71
2023/07/10 00:57:19;;;;;;;6.72;2.85;;;;;;;-146.27;83.61;81379.91;5064118;28;20037;-72
2023/07/10 00:59:45;;;;;;;2.63;2.20;;;;;;;-146.27;84.00;81412.03;5073455;28;20041;-71
2023/07/10 01:02:17;;;;;;;5.30;2.92;;;;;;;-146.27;84.45;81404.00;5057608;28;20372;-71
2023/07/10 01:04:47;;;;;;;5.72;2.80;;;;;;;-146.27;84.11;81428.09;5060234;28;20059;-71
2023/07/10 01:07:15;;;;;;;6.68;2.85;;;;;;;-146.27;84.18;81379.91;5083079;28;20544;-72
2023/07/10 01:09:53;;;;;;;6.60;2.88;;;;;;;-146.27;85.67;81371.88;5064664;28;20116;-72
2023/07/10 01:12:19;;;;;;;7.35;2.90;;;;;;;-146.27;85.66;81416.06;5094477;28;20035;-71
2023/07/10 01:14:45;;;;;;;7.35;2.50;;;;;;;-146.27;84.76;81468.28;5058939;28;20445;-72
2023/07/10 01:17:10;;;;;;;6.95;2.45;;;;;;;-146.27;84.75;81440.16;5080066;28;20032;-72
2023/07/10 01:19:38;;;;;;;5.38;2.70;;;;;;;-146.27;85.07;81410.03;5072593;28;20032;-72
2023/07/10 01:22:04;;;;;;;4.97;2.60;;;;;;;-146.27;85.13;81412.03;5067084;28;20031;-72
2023/07/10 01:24:30;;;;;;;6.15;3.17;;;;;;;-146.27;85.56;81428.09;5071506;28;20028;-72
2023/07/10 01:26:57;;;;;;;9.57;3.00;;;;;;;-146.27;85.98;81436.16;5074089;28;20093;-72
2023/07/10 01:29:35;;;;;;;7.97;3.28;;;;;;;-146.27;86.72;81460.25;5078724;28;20024;-72
2023/07/10 01:32:02;;;;;;;6.35;3.45;;;;;;;-146.27;85.62;81504.44;5070306;28;20544;-72
2023/07/10 01:34:38;;;;;;;7.57;2.95;;;;;;;-146.27;86.83;81516.47;5071575;28;20040;-72
2023/07/10 01:37:05;;;;;;;9.45;2.97;;;;;;;-146.27;85.30;81534.56;5085705;28;20068;-72
2023/07/10 01:39:41;;;;;;;5.40;2.30;;;;;;;-146.27;85.32;81538.56;5068765;28;20039;-73
2023/07/10 01:42:07;;;;;;;5.43;2.38;;;;;;;-146.27;85.89;81560.66;5062111;28;20037;-72
2023/07/10 01:44:38;;;;;;;6.25;1.90;;;;;;;-146.27;85.42;81562.66;5062322;28;20043;-72
2023/07/10 01:47:07;;;;;;;6.82;2.22;;;;;;;-146.27;85.28;81572.72;5068399;28;20032;-72
2023/07/10 01:49:40;;;;;;;5.03;1.80;;;;;;;-146.27;85.12;81568.69;5061545;28;20853;-73
2023/07/10 01:52:08;;;;;;;3.83;2.00;;;;;;;-146.27;86.06;81588.78;5070529;28;20461;-72
2023/07/10 01:54:34;;;;;;;6.35;2.35;;;;;;;-146.27;84.72;81592.78;5068459;28;20024;-73
2023/07/10 01:57:00;;;;;;;8.93;2.58;;;;;;;-146.27;86.82;81568.69;5071633;28;20372;-72
2023/07/10 01:59:25;;;;;;;5.97;2.17;;;;;;;-146.27;86.23;81653.06;5075290;28;20028;-72
2023/07/10 02:01:53;;;;;;;4.68;2.03;;;;;;;-146.27;86.15;81594.81;5062935;28;20510;-72
2023/07/10 02:04:19;;;;;;;3.38;1.70;;;;;;;-146.27;86.51;81630.97;5065589;28;20613;-73
2023/07/10 02:06:44;;;;;;;5.47;2.05;;;;;;;-146.27;86.26;81586.78;5074445;28;20023;-73
2023/07/10 02:09:10;;;;;;;5.90;2.10;;;;;;;-146.27;85.80;81622.91;5078132;28;20487;-73
2023/07/10 02:11:37;;;;;;;2.85;2.15;;;;;;;-146.27;86.32;81616.91;5068068;28;20045;-73
2023/07/10 02:14:06;;;;;;;4.03;1.67;;;;;;;-146.27;86.70;81618.91;5070965;28;20028;-72
2023/07/10 02:16:32;;;;;;;5.50;1.80;;;;;;;-146.27;87.27;81651.03;5065135;28;20437;-73
2023/07/10 02:18:59;;;;;;;7.07;2.30;;;;;;;-146.27;86.70;81606.84;5068373;28;20115;-74
2023/07/10 02:21:25;;;;;;;6.85;2.13;;;;;;;-146.27;88.32;81661.09;5062552;28;20024;-73
2023/07/10 02:23:50;;;;;;;7.32;1.92;;;;;;;-146.27;88.38;81691.22;5073479;28;20032;-73
2023/07/10 02:26:16;;;;;;;4.57;1.60;;;;;;;-146.27;89.13;81663.09;5069788;28;20085;-73
2023/07/10 02:28:42;;;;;;;9.95;1.90;;;;;;;-146.27;88.16;81610.88;5068598;28;20038;-73
2023/07/10 02:31:08;;;;;;;5.40;2.10;;;;;;;-146.27;88.19;81636.97;5070342;28;20119;-73
2023/07/10 02:33:34;;;;;;;7.97;1.92;;;;;;;-146.27;88.18;81622.91;5056871;28;20071;-72
2023/07/10 02:36:00;;;;;;;9.95;2.75;;;;;;;-146.27;88.95;81685.19;5071628;28;20016;-74
2023/07/10 02:38:26;;;;;;;7.82;2.55;;;;;;;-146.27;89.29;81691.22;5068944;28;20021;-73
2023/07/10 02:40:52;;;;;;;5.25;2.00;;;;;;;-146.27;88.91;81681.16;5069518;28;20394;-72
2023/07/10 02:43:18;;;;;;;5.43;2.53;;;;;;;-146.27;89.84;81693.22;5061899;28;20024;-73
2023/07/10 02:45:44;;;;;;;5.25;2.03;;;;;;;-146.27;90.13;81695.22;5053820;28;20100;-73
2023/07/10 02:48:10;;;;;;;8.27;2.13;;;;;;;-146.27;90.09;81689.19;5075702;28;20593;-72
2023/07/10 02:50:36;;;;;;;6.50;2.25;;;;;;;-146.27;90.38;81719.31;5075463;28;20577;-73
2023/07/10 02:53:01;;;;;;;9.20;3.17;;;;;;;-146.27;89.83;81727.38;5068186;28;20036;-73
2023/07/10 02:55:27;;;;;;;5.20;2.50;;;;;;;-146.27;90.94;81737.41;5069133;28;20032;-73
2023/07/10 02:57:52;;;;;;;6.75;3.42;;;;;;;-146.27;90.96;81729.38;5072069;28;20102;-73
2023/07/10 03:00:18;;;;;;;5.00;2.40;;;;;;;-146.27;90.53;81723.34;5082651;28;20036;-73
2023/07/10 03:02:43;;;;;;;7.53;2.47;;;;;;;-146.27;91.74;81741.41;5076907;28;20468;-73
2023/07/10 03:05:08;;;;;;;6.35;2.67;;;;;;;-146.27;91.53;81739.41;5084678;28;20025;-73
2023/07/10 03:07:34;;;;;;;9.98;2.33;;;;;;;-146.27;92.02;81773.56;5072526;28;20051;-73
2023/07/10 03:09:59;;;;;;;5.20;2.20;;;;;;;-146.27;91.28;81781.59;5078854;28;20356;-73
2023/07/10 03:12:26;;;;;;;10.15;2.53;;;;;;;-146.27;92.00;81753.47;5083398;28;20025;-73
2023/07/10 03:14:51;;;;;;;7.60;1.90;;;;;;;-146.27;91.51;81809.72;5077097;28;20605;-72
2023/07/10 03:17:18;;;;;;;9.80;2.70;;;;;;;-146.27;93.30;81759.50;5087252;28;20027;-73
2023/07/10 03:19:44;;;;;;;7.00;2.75;;;;;;;-146.27;91.80;81783.59;5076106;28;20842;-73
2023/07/10 03:22:10;;;;;;;5.53;2.00;;;;;;;-146.27;91.90;81781.59;5066349;28;20065;-74
2023/07/10 03:24:36;;;;;;;8.77;2.17;;;;;;;-146.27;92.23;81807.69;5077512;28;20433;-73
2023/07/10 03:27:02;;;;;;;13.15;2.80;;;;;;;-146.27;92.05;81789.63;5067617;28;20078;-73
2023/07/10 03:29:27;;;;;;;6.43;2.97;;;;;;;-146.27;92.94;81783.59;5076874;28;20469;-73
2023/07/10 03:31:52;;;;;;;8.18;2.25;;;;;;;-146.27;92.36;81785.59;5072161;28;20441;-73
2023/07/10 03:34:18;;;;;;;9.90;2.10;;;;;;;-146.27;92.90;81779.59;5061352;28;20012;-72
2023/07/10 03:36:44;;;;;;;7.47;2.63;;;;;;;-146.27;92.64;81797.66;5074488;28;20107;-72
2023/07/10 03:39:12;;;;;;;6.60;2.20;;;;;;;-146.27;92.45;81815.72;5077775;28;20036;-72
2023/07/10 03:41:37;;;;;;;6.50;2.40;;;;;;;-146.27;92.20;81805.69;5087163;28;20024;-72
2023/07/10 03:44:03;;;;;;;3.70;2.20;;;;;;;-146.27;92.58;81813.72;5079556;28;20343;-72
2023/07/10 03:46:28;;;;;;;6.18;2.47;;;;;;;-146.27;91.59;81813.72;5082097;28;20402;-72
2023/07/10 03:48:54;;;;;;;7.60;2.30;;;;;;;-146.27;91.70;81805.69;5091352;28;20024;-72
2023/07/10 03:51:19;;;;;;;11.07;2.50;;;;;;;-146.27;92.52;81787.63;5075696;28;20043;-73
2023/07/10 03:53:46;;;;;;;6.80;2.05;;;;;;;-146.27;91.57;81795.66;5083254;28;20016;-71
2023/07/10 03:56:12;;;;;;;5.97;2.13;;;;;;;-146.27;91.15;81805.69;5087598;28;20122;-72
2023/07/10 03:58:43;;;;;;;5.10;1.80;;;;;;;-146.27;91.37;81789.63;5085496;28;20416;-71
2023/07/10 04:01:10;;;;;;;10.75;2.55;;;;;;;-146.27;90.68;81811.72;5091496;28;20058;-72
2023/07/10 04:03:37;;;;;;;6.80;2.05;;;;;;;-146.27;91.67;81823.78;5083348;28;20032;-71
2023/07/10 04:06:03;;;;;;;8.60;2.40;;;;;;;-146.27;91.24;81761.50;5070700;28;20078;-71
2023/07/10 04:08:31;;;;;;;6.57;2.22;;;;;;;-146.27;90.90;81805.69;5074557;28;20024;-73
2023/07/10 04:11:05;;;;;;;10.82;2.13;;;;;;;-146.27;90.71;81793.66;5072323;28;20045;-74
2023/07/10 04:13:31;;;;;;;5.30;1.85;;;;;;;-146.27;89.88;81809.72;5067932;28;20377;-73
2023/07/10 04:16:05;;;;;;;9.93;2.22;;;;;;;-146.27;90.18;81755.47;5071782;28;20029;-72
2023/07/10 04:18:33;;;;;;;6.78;1.77;;;;;;;-146.27;90.91;81777.56;5068217;28;20039;-72
2023/07/10 04:21:00;;;;;;;5.80;1.75;;;;;;;-146.27;89.81;81771.53;5069824;28;20089;-72
2023/07/10 04:23:26;;;;;;;8.40;1.80;;;;;;;-146.27;89.40;81783.59;5070572;28;20476;-73
2023/07/10 04:25:51;;;;;;;9.23;1.90;;;;;;;-146.27;90.07;81779.59;5068018;28;20042;-73
2023/07/10 04:28:17;;;;;;;7.13;2.20;;;;;;;-146.27;89.41;81781.59;5069124;28;20103;-73
2023/07/10 04:30:45;;;;;;;7.10;2.00;;;;;;;-146.27;89.24;81765.53;5069197;28;20399;-73
2023/07/10 04:33:11;;;;;;;3.75;1.52;;;;;;;-146.27;88.56;81729.38;5071152;28;20469;-73
2023/07/10 04:35:38;;;;;;;5.82;1.77;;;;;;;-146.27;88.60;81801.69;5071186;28;20028;-73
2023/07/10 04:38:05;;;;;;;6.22;2.15;;;;;;;-146.27;88.35;81753.47;5057302;28;20032;-73
2023/07/10 04:40:31;;;;;;;8.48;2.00;;;;;;;-146.27;88.29;81753.47;5070966;28;20528;-72
2023/07/10 04:42:56;;;;;;;6.40;1.77;;;;;;;-146.27;88.11;81763.50;5072458;28;20162;-73
2023/07/10 04:45:22;;;;;;;10.90;2.08;;;;;;;-146.27;87.85;81741.41;5071833;28;20157;-73
2023/07/10 04:47:48;;;;;;;7.22;2.13;;;;;;;-146.27;88.05;81707.28;5064180;28;20031;-73
2023/07/10 04:50:13;;;;;;;11.90;2.55;;;;;;;-146.27;88.26;81757.50;5066283;28;20039;-72
2023/07/10 04:52:39;;;;;;;10.00;1.95;;;;;;;-146.27;88.65;81715.31;5068069;28;20025;-73
2023/07/10 04:55:04;;;;;;;11.13;2.20;;;;;;;-146.27;88.26;81691.22;5070254;28;20142;-73
2023/07/10 04:57:30;;;;;;;3.97;1.73;;;;;;;-146.27;88.28;81683.19;5059638;28;20582;-73
2023/07/10 04:59:56;;;;;;;7.15;1.77;;;;;;;-146.27;87.72;81669.13;5060201;28;20028;-72
2023/07/10 05:02:22;;;;;;;6.25;2.00;;;;;;;-146.27;87.70;81681.16;5064487;28;20064;-73
2023/07/10 05:04:47;;;;;;;10.45;1.85;;;;;;;-146.27;87.14;81651.03;5068966;28;20495;-72
2023/07/10 05:07:13;;;;;;;7.70;2.45;;;;;;;-146.27;87.67;81616.91;5069840;28;20667;-73
2023/07/10 05:09:38;;;;;;;6.95;2.35;;;;;;;-146.27;87.92;81655.06;5071306;28;20030;-73
2023/07/10 05:12:04;;;;;;;7.25;1.30;;;;;;;-146.27;87.56;81649.03;5069846;28;20397;-72
2023/07/10 05:14:29;;;;;;;11.38;2.85;;;;;;;-146.27;86.68;81641.00;5068747;28;20078;-73
2023/07/10 05:16:55;;;;;;;6.72;1.70;;;;;;;-146.27;86.60;81564.69;5080266;28;20038;-73
2023/07/10 05:19:21;;;;;;;7.50;2.08;;;;;;;-146.27;86.12;81608.88;5066657;28;20033;-72
2023/07/10 05:21:47;;;;;;;6.53;1.80;;;;;;;-146.27;86.21;81580.75;5074166;28;20502;-73
2023/07/10 05:24:13;;;;;;;9.95;1.77;;;;;;;-146.27;85.91;81588.78;5065291;28;20032;-72
2023/07/10 05:26:38;;;;;;;6.43;2.05;;;;;;;-146.27;86.02;81600.84;5070102;28;20373;-73
2023/07/10 05:29:04;;;;;;;5.90;1.80;;;;;;;-146.27;85.93;81592.78;5058122;28;20020;-73
2023/07/10 05:31:30;;;;;;;4.35;1.50;;;;;;;-146.27;85.52;81628.94;5060442;28;20067;-72
2023/07/10 05:33:55;;;;;;;7.18;1.60;;;;;;;-146.27;85.40;81560.66;5063624;28;20020;-72
2023/07/10 05:36:20;;;;;;;9.00;1.80;;;;;;;-146.27;85.24;81584.75;5066837;28;20033;-72
2023/07/10 05:38:48;;;;;;;10.95;2.20;;;;;;;-146.27;85.18;81564.69;5067240;28;20031;-72
2023/07/10 05:41:18;;;;;;;7.28;2.33;;;;;;;-146.27;84.92;81532.53;5062819;28;20107;-72
2023/07/10 05:43:43;;;;;;;6.10;1.45;;;;;;;-146.27;85.02;81520.50;5079804;28;20116;-73
2023/07/10 05:46:09;;;;;;;9.48;1.95;;;;;;;-146.27;84.97;81512.47;5061524;28;20437;-72
2023/07/10 05:48:35;;;;;;;10.40;2.55;;;;;;;-146.27;84.50;81544.59;5060027;28;20021;-72
2023/07/10 05:51:00;;;;;;;7.38;1.92;;;;;;;-146.27;84.87;81530.53;5065486;28;20063;-72
2023/07/10 05:53:26;;;;;;;7.38;1.77;;;;;;;-146.27;84.69;81544.59;5064618;28;20051;-71
2023/07/10 05:55:53;;;;;;;9.00;1.75;;;;;;;-146.27;84.20;81480.31;5066865;28;20107;-70
2023/07/10 05:58:21;;;;;;;8.70;1.70;;;;;;;-146.27;84.01;81538.56;5071213;28;20056;-77
2023/07/10 06:00:49;;;;;;;7.78;1.80;;;;;;;-146.27;83.28;81528.53;5070110;28;20063;-75
2023/07/10 06:03:14;;;;;;;16.27;2.78;;;;;;;-146.27;83.36;81472.28;5064466;28;20119;-76
2023/07/10 06:05:40;;;;;;;8.43;2.22;;;;;;;-146.27;83.07;81506.44;5081691;28;20036;-76
2023/07/10 06:08:06;;;;;;;10.80;2.53;;;;;;;-146.27;83.44;81472.28;5078046;28;20025;-75
2023/07/10 06:10:33;;;;;;;11.32;2.33;;;;;;;-146.27;83.03;81484.34;5081427;28;20141;-76
2023/07/10 06:12:58;;;;;;;5.47;1.58;;;;;;;-146.27;83.00;81430.13;5066409;28;20473;-76
2023/07/10 06:15:23;;;;;;;9.90;2.13;;;;;;;-146.27;82.77;81426.09;5062878;28;20123;-77
2023/07/10 06:17:49;;;;;;;10.75;1.75;;;;;;;-146.27;82.45;81418.06;5067856;28;20030;-77
2023/07/10 06:20:15;;;;;;;15.63;2.28;;;;;;;-146.27;81.65;81416.06;5069859;28;20028;-78
2023/07/10 06:22:40;;;;;;;7.65;1.67;;;;;;;-146.27;81.51;81377.91;5064286;28;20112;-77
2023/07/10 06:25:06;;;;;;;7.85;2.33;;;;;;;-146.27;81.37;81379.91;5068689;28;20376;-76
2023/07/10 06:27:32;;;;;;;14.73;2.55;;;;;;;-146.27;80.18;81365.84;5068728;28;20039;-78
2023/07/10 06:29:58;;;;;;;12.05;2.20;;;;;;;-146.27;79.99;81343.75;5065076;28;20017;-77
2023/07/10 06:32:24;;;;;;;16.15;2.63;;;;;;;-146.27;80.13;81339.75;5066186;28;20048;-74
2023/07/10 06:34:49;;;;;;;15.32;3.17;;;;;;;-146.27;79.48;81309.63;5074520;28;20374;-75
2023/07/10 06:37:15;;;;;;;12.65;2.15;;;;;;;-146.27;78.83;81299.59;5079759;28;20032;-75
2023/07/10 06:39:40;;;;;;;13.32;2.20;;;;;;;-146.27;79.02;81305.59;5071404;28;20040;-75
2023/07/10 06:42:06;;;;;;;12.18;2.20;;;;;;;-146.27;78.87;81313.63;5057897;28;20031;-67
2023/07/10 06:44:32;;;;;;;8.07;1.88;;;;;;;-146.27;78.14;81259.41;5063226;28;20107;-71
2023/07/10 06:46:57;;;;;;;10.82;1.70;;;;;;;-146.27;77.24;81287.53;5069535;28;20032;-71
2023/07/10 06:49:22;;;;;;;11.18;1.70;;;;;;;-146.27;76.71;81271.47;5069685;28;20020;-70
2023/07/10 06:51:48;;;;;;;13.65;1.98;;;;;;;-146.27;76.19;81235.31;5059234;28;20035;-70
2023/07/10 06:54:13;;;;;;;9.48;2.15;;;;;;;-146.27;75.29;81265.44;5064259;28;20130;-71
2023/07/10 06:56:38;;;;;;;11.20;1.42;;;;;;;-146.27;75.23;81211.22;5069631;28;20436;-70
2023/07/10 06:59:04;;;;;;;6.47;1.42;;;;;;;-146.27;75.47;81203.19;5058028;28;20036;-71
2023/07/10 07:01:30;;;;;;;11.50;1.75;;;;;;;-146.27;75.00;81193.16;5053245;28;20078;-70
2023/07/10 07:03:55;;;;;;;8.35;1.70;;;;;;;-146.27;74.05;81233.31;5067893;28;20449;-70
2023/07/10 07:06:21;;;;;;;14.43;2.10;;;;;;;-146.27;74.43;81213.22;5066163;28;20517;-70
2023/07/10 07:08:48;;;;;;;7.28;2.10;;;;;;;-146.27;74.08;81122.84;5068835;28;20534;-70
2023/07/10 07:11:14;;;;;;;8.75;2.10;;;;;;;-146.27;74.32;81142.94;5061013;28;20053;-71
2023/07/10 07:13:39;;;;;;;8.50;1.60;;;;;;;-146.27;72.82;81150.97;5068051;28;20454;-70
2023/07/10 07:16:04;;;;;;;10.18;1.70;;;;;;;-146.27;72.19;81116.84;5067187;28;20027;-71
2023/07/10 07:18:31;;;;;;;12.48;2.20;;;;;;;-146.27;71.90;81150.97;5067763;28;20056;-70
2023/07/10 07:20:57;;;;;;;7.07;2.03;;;;;;;-146.27;72.12;81167.03;5069553;28;20070;-71
2023/07/10 07:23:23;;;;;;;6.95;1.55;;;;;;;-146.27;69.68;81134.91;5069035;28;20031;-70
2023/07/10 07:25:49;;;;;;;7.88;2.47;;;;;;;-146.27;67.99;81138.91;5081226;28;20032;-70
2023/07/10 07:28:14;;;;;;;4.53;1.27;;;;;;;-146.27;67.80;81159.00;5066760;28;20021;-71
2023/07/10 07:30:47;;;;;;;7.65;1.58;;;;;;;-146.27;67.16;81118.84;5049078;28;20114;-71
2023/07/10 07:33:16;;;;;;;7.87;1.40;;;;;;;-146.27;66.81;81120.84;5054659;28;20142;-71
2023/07/10 07:35:42;;;;;;;8.18;1.80;;;;;;;-146.27;68.13;81142.94;5069129;28;20051;-70
2023/07/10 07:38:07;;;;;;;10.85;1.75;;;;;;;-146.27;68.35;81104.78;5054257;28;20060;-71
2023/07/10 07:40:32;;;;;;;6.32;1.73;;;;;;;-146.27;68.68;81052.56;5065597;28;20032;-71
2023/07/10 07:42:58;;;;;;;8.15;2.25;;;;;;;-146.27;68.49;81038.50;5073433;28;20468;-71
2023/07/10 07:45:23;;;;;;;9.10;1.65;;;;;;;-146.27;68.20;81030.47;5073964;28;20484;-71
2023/07/10 07:47:49;;;;;;;9.35;1.70;;;;;;;-146.27;66.55;81026.47;5075590;28;20381;-71
2023/07/10 07:50:14;;;;;;;11.00;2.60;;;;;;;-146.27;66.41;81048.56;5077212;28;20028;-70
2023/07/10 07:52:39;;;;;;;5.03;1.50;;;;;;;-146.27;66.75;81022.44;5070265;28;20493;-71
2023/07/10 07:55:06;;;;;;;9.45;1.70;;;;;;;-146.27;64.82;80966.22;5064332;28;20307;-70
2023/07/10 07:57:31;;;;;;;6.20;1.40;;;;;;;-146.27;65.57;80976.25;5072736;28;20059;-71
2023/07/10 07:59:58;;;;;;;10.48;1.50;;;;;;;-146.27;65.81;80901.97;5072556;28;20021;-71
2023/07/10 08:02:23;;;;;;;6.28;1.67;;;;;;;-146.27;63.82;80920.03;5066169;28;20032;-70
2023/07/10 08:04:49;;;;;;;8.55;1.92;;;;;;;-146.27;64.53;80893.94;5072330;28;20028;-71
2023/07/10 08:07:14;;;;;;;5.38;1.60;;;;;;;-146.27;65.03;80889.91;5072376;28;20016;-71
2023/07/10 08:09:39;;;;;;;8.45;1.60;;;;;;;-146.27;64.72;80863.81;5080775;28;20099;-70
2023/07/10 08:12:05;;;;;;;7.25;1.52;;;;;;;-146.27;64.64;80910.00;5076697;28;20048;-71
2023/07/10 08:14:31;;;;;;;14.80;2.50;;;;;;;-146.27;64.54;80891.94;5071012;28;20491;-71
2023/07/10 08:16:56;;;;;;;8.20;1.63;;;;;;;-146.27;64.73;80853.78;5072346;28;20021;-71
2023/07/10 08:19:22;;;;;;;5.47;1.13;;;;;;;-146.27;64.59;80845.75;5070747;28;20469;-71
2023/07/10 08:21:47;;;;;;;8.20;1.70;;;;;;;-146.27;63.21;80863.81;5063479;28;20484;-72
2023/07/10 08:24:14;;;;;;;11.82;2.00;;;;;;;-146.27;64.23;80815.63;5059557;28;20075;-72
2023/07/10 08:26:39;;;;;;;11.30;1.63;;;;;;;-146.27;65.17;80827.66;5070673;28;20035;-70
2023/07/10 08:29:31;;;;;;;11.60;1.98;;;;;;;-146.27;65.31;80769.44;5070942;28;20016;-72
2023/07/10 08:32:00;;;;;;;15.02;2.55;;;;;;;-146.27;64.62;80781.47;5062913;28;20032;-72
2023/07/10 08:34:27;;;;;;;9.30;1.60;;;;;;;-146.27;64.90;80757.38;5079690;28;20047;-71
2023/07/10 08:36:53;;;;;;;9.38;2.40;;;;;;;-146.27;64.13;80789.50;5062176;28;20048;-71
2023/07/10 08:39:20;;;;;;;10.10;1.98;;;;;;;-146.27;65.26;80743.34;5055668;28;20044;-71
2023/07/10 08:41:51;;;;;;;11.40;2.28;;;;;;;-146.27;64.96;80773.44;5071800;28;20100;-73
2023/07/10 08:44:17;;;;;;;8.90;1.98;;;;;;;-146.27;64.10;80749.34;5050799;28;20036;-72
2023/07/10 08:46:42;;;;;;;9.68;1.65;;;;;;;-146.27;62.40;80733.28;5088297;28;20031;-72
2023/07/10 08:49:21;;;;;;;9.93;1.77;;;;;;;-146.27;63.08;80657.00;5052847;28;20040;-71
2023/07/10 08:52:00;;;;;;;14.88;2.00;;;;;;;-146.27;62.48;80661.00;5090122;28;20052;-71
2023/07/10 08:54:28;;;;;;;7.13;1.52;;;;;;;-146.27;61.63;80648.97;5066243;28;20028;-71
2023/07/10 08:57:29;;;;;;;9.82;1.75;;;;;;;-146.27;61.13;80733.28;5069434;28;20042;-71
2023/07/10 09:00:00;;;;;;;7.45;1.63;;;;;;;-146.27;62.05;80620.84;5070253;28;20044;-71
2023/07/10 09:03:04;;;;;;;9.90;1.45;;;;;;;-146.27;61.31;80598.75;5065514;28;20028;-72
2023/07/10 09:05:32;;;;;;;8.55;1.50;;;;;;;-146.27;61.04;80532.50;5063519;28;20043;-71
2023/07/10 09:08:03;;;;;;;10.68;1.83;;;;;;;-146.27;59.89;80564.63;5077273;28;20036;-72
2023/07/10 09:10:41;;;;;;;7.82;1.52;;;;;;;-146.27;60.23;80576.66;5079229;28;20051;-73
2023/07/10 09:13:13;;;;;;;4.72;1.50;;;;;;;-146.27;60.76;80496.34;5070781;28;20472;-72
2023/07/10 09:15:49;;;;;;;9.63;1.20;;;;;;;-146.27;60.54;80464.22;5084187;28;20024;-73
2023/07/10 09:18:29;;;;;;;7.82;1.92;;;;;;;-146.27;59.55;80524.47;5091317;28;20034;-72
2023/07/10 09:21:06;;;;;;;8.90;1.60;;;;;;;-146.27;60.44;80468.25;5092201;28;20052;-76
2023/07/10 09:23:34;;;;;;;5.85;1.52;;;;;;;-146.27;58.84;80536.50;5066408;28;20044;-78
2023/07/10 09:26:12;;;;;;;9.90;1.67;;;;;;;-146.27;59.94;80436.13;5072193;28;20034;-79
2023/07/10 09:28:39;;;;;;;11.52;1.85;;;;;;;-146.27;60.84;80369.88;5072095;28;20427;-78
2023/07/10 09:31:07;;;;;;;9.45;1.75;;;;;;;-146.27;58.81;80387.94;5071156;28;20448;-76
2023/07/10 09:33:59;;;;;;;4.72;1.50;;;;;;;-146.27;57.85;80412.03;5078141;28;20059;-75
2023/07/10 09:36:27;;;;;;;6.68;1.10;;;;;;;-146.27;58.53;80323.69;5066819;28;20085;-75
2023/07/10 09:38:53;;;;;;;7.47;1.75;;;;;;;-146.27;57.88;80335.72;5069065;28;20017;-75
2023/07/10 09:41:23;;;;;;;4.47;1.40;;;;;;;-146.27;57.36;80337.75;5056427;28;20036;-76
2023/07/10 09:43:58;;;;;;;9.10;1.92;;;;;;;-146.27;56.85;80339.75;5071434;28;20555;-75
2023/07/10 09:46:30;;;;;;;6.47;1.30;;;;;;;-146.27;57.47;80355.81;5082177;28;20042;-76
2023/07/10 09:49:00;;;;;;;11.95;2.05;;;;;;;-146.27;57.28;80365.84;5089390;28;20028;-76
2023/07/10 09:51:30;;;;;;;6.63;1.20;;;;;;;-146.27;56.77;80404.00;5063177;28;20407;-75
2023/07/10 09:54:04;;;;;;;8.70;1.67;;;;;;;-146.27;55.70;80448.16;5068947;28;20400;-76
2023/07/10 09:56:37;;;;;;;12.05;1.63;;;;;;;-146.27;55.01;80448.16;5071284;28;20021;-75
2023/07/10 09:59:30;;;;;;;6.60;1.50;;;;;;;-146.27;55.76;80335.72;5062087;28;20028;-75
2023/07/10 10:01:55;;;;;;;5.90;1.25;;;;;;;-146.27;55.05;80333.72;5059580;28;20036;-75
2023/07/10 10:04:26;;;;;;;4.90;1.50;;;;;;;-146.27;56.26;80359.81;5055788;28;20412;-76
2023/07/10 10:07:05;;;;;;;12.13;1.73;;;;;;;-146.27;54.65;80414.03;5065233;28;20392;-75
2023/07/10 10:09:32;;;;;;;11.32;1.98;;;;;;;-146.27;55.28;80424.06;5066308;28;20503;-76
2023/07/10 10:12:05;;;;;;;12.23;1.75;;;;;;;-146.27;55.93;80319.66;5064887;28;20045;-76
2023/07/10 10:14:43;;;;;;;8.55;2.13;;;;;;;-146.27;55.42;80333.72;5057038;28;20063;-76
2023/07/10 10:17:13;;;;;;;10.98;1.90;;;;;;;-146.27;54.93;80331.72;5054952;28;20043;-75
2023/07/10 10:19:45;;;;;;;7.78;1.38;;;;;;;-146.27;53.79;80472.25;5051732;28;20111;-80
2023/07/10 10:22:15;;;;;;;6.25;1.20;;;;;;;-146.27;55.56;80484.31;5055283;28;20028;-76
2023/07/10 10:24:41;;;;;;;7.53;1.50;;;;;;;-146.27;55.28;80486.31;5050503;28;20395;-76
2023/07/10 10:27:25;;;;;;;9.93;1.52;;;;;;;-146.27;56.30;80395.97;5056075;28;20051;-75
2023/07/10 10:30:09;;;;;;;8.32;1.80;;;;;;;-146.27;54.89;80317.66;5062873;28;20071;-75
2023/07/10 10:32:43;;;;;;;9.75;1.92;;;;;;;-146.27;55.89;80205.22;5053144;28;20041;-76
2023/07/10 10:35:35;;;;;;;11.52;1.70;;;;;;;-146.27;54.75;80155.03;5064111;28;20484;-75
2023/07/10 10:38:22;;;;;;;5.53;1.80;;;;;;;-146.27;52.51;80138.97;5061228;28;21135;-75
2023/07/10 10:41:00;;;;;;;9.43;2.40;;;;;;;-146.27;53.26;80151.03;5068077;28;20024;-76
2023/07/10 10:43:32;;;;;;;4.50;1.52;;;;;;;-146.27;53.65;80171.09;5061149;28;20036;-76
2023/07/10 10:46:03;;;;;;;8.52;1.40;;;;;;;-146.27;55.08;79976.34;5049222;28;20357;-76
2023/07/10 10:48:34;;;;;;;4.63;1.80;;;;;;;-146.27;52.50;79988.41;5070834;28;20437;-76
2023/07/10 10:51:10;;;;;;;6.45;1.38;;;;;;;-146.27;53.36;79797.69;5069426;28;20032;-75
2023/07/10 10:54:14;;;;;;;6.43;1.30;;;;;;;-146.27;49.74;79882.00;5077408;28;20024;-75
2023/07/10 10:56:51;;;;;;;10.45;1.67;;;;;;;-146.27;50.20;79924.16;5050835;28;20041;-75
2023/07/10 10:59:53;;;;;;;4.15;1.30;;;;;;;-146.27;49.49;79896.06;5061358;28;20284;-74
2023/07/10 11:02:50;;;;;;;6.80;1.42;;;;;;;-146.27;47.85;79869.94;5062734;28;20036;-75
2023/07/10 11:05:29;;;;;;;7.90;1.38;;;;;;;-146.27;49.07;79753.53;5058797;28;20064;-73
2023/07/10 11:08:02;;;;;;;6.40;1.27;;;;;;;-146.27;46.55;79801.69;5061755;28;20051;-74
2023/07/10 11:10:33;;;;;;;7.45;1.90;;;;;;;-146.27;47.41;79701.31;5080102;28;20043;-74
2023/07/10 11:12:59;;;;;;;7.03;1.33;;;;;;;-146.27;45.67;79781.63;5062037;28;20032;-74
2023/07/10 11:15:27;;;;;;;7.90;1.20;;;;;;;-146.27;46.13;79747.50;5069815;28;20024;-74
2023/07/10 11:18:03;;;;;;;3.75;1.10;;;;;;;-146.27;45.27;79886.00;5057823;28;20053;-75
2023/07/10 11:20:32;;;;;;;4.93;1.25;;;;;;;-146.27;45.10;79845.88;5069576;28;20426;-74
2023/07/10 11:23:03;;;;;;;8.80;1.20;;;;;;;-146.27;44.81;79857.91;5069916;28;20035;-74